Time;durP1;ratioP1;P1;durP2;ratioP2;P2;SDS_P1;SDS_P2;PMS_P1;PMS_P2;Temp;Humidity;BMP_temperature;BMP_pressure;BME280_temperature;BME280_humidity;BME280_pressure;Samples;Min_cycle;Max_cycle;Signal;HPM_P1;HPM_P2
2022/11/26 00:01:38;;;;;;;;;;;3.20;99.90;;;;;;2603315;54;20009;31
2022/11/26 00:04:12;;;;;;;;;;;3.20;99.90;;;;;;2603474;54;19941;31
2022/11/26 00:06:46;;;;;;;;;;;3.20;99.90;;;;;;2622171;46;19935;31
2022/11/26 00:09:20;;;;;;;;;;;3.20;99.90;;;;;;2628405;39;20994;31
2022/11/26 00:11:54;;;;;;;;;;;3.20;99.90;;;;;;2621878;46;20826;31
2022/11/26 00:14:30;;;;;;;;;;;3.20;99.90;;;;;;2621435;47;20672;31
2022/11/26 00:17:07;;;;;;;;;;;3.30;99.90;;;;;;2603397;54;19941;31
2022/11/26 00:19:41;;;;;;;;;;;3.30;99.90;;;;;;2621629;47;19935;31
2022/11/26 00:22:16;;;;;;;;;;;3.30;99.90;;;;;;2622072;47;19989;31
2022/11/26 00:24:51;;;;;;;;;;;3.40;99.90;;;;;;2603341;54;20818;31
2022/11/26 00:27:26;;;;;;;;;;;3.40;99.90;;;;;;2621794;47;19935;31
2022/11/26 00:30:00;;;;;;;;;;;3.40;99.90;;;;;;2603236;54;20029;31
2022/11/26 00:32:37;;;;;;;;;;;3.40;99.90;;;;;;2603318;54;19989;31
2022/11/26 00:35:11;;;;;;;;;;;3.40;99.90;;;;;;2621849;47;20770;31
2022/11/26 00:37:45;;;;;;;;;;;3.40;99.90;;;;;;2621764;47;20795;31
2022/11/26 00:40:20;;;;;;;;;;;3.50;99.90;;;;;;2603413;54;19930;31
2022/11/26 00:42:54;;;;;;;;;;;3.50;99.90;;;;;;2621481;47;20730;31
2022/11/26 00:45:34;;;;;;;;;;;3.50;99.90;;;;;;2603090;54;20048;31
2022/11/26 00:48:10;;;;;;;;;;;3.60;99.90;;;;;;2602953;54;20027;31
2022/11/26 00:50:45;;;;;;;;;;;4.40;99.90;;;;;;2603144;54;20724;31
2022/11/26 00:53:19;;;;;;;;;;;3.70;99.90;;;;;;2603306;54;20770;31
2022/11/26 00:55:53;;;;;;;;;;;3.70;99.90;;;;;;2604126;54;20734;31
2022/11/26 00:58:27;;;;;;;;;;;3.70;99.90;;;;;;2622757;46;20002;31
2022/11/26 01:01:01;;;;;;;;;;;3.80;99.90;;;;;;2604162;54;19943;31
2022/11/26 01:03:41;;;;;;;;;;;3.80;99.90;;;;;;2604025;54;19935;31
2022/11/26 01:06:15;;;;;;;;;;;3.90;99.90;;;;;;2603825;54;20785;31
2022/11/26 01:08:49;;;;;;;;;;;3.90;99.90;;;;;;2604026;54;19934;31
2022/11/26 01:11:23;;;;;;;;;;;3.90;99.90;;;;;;2622640;46;20794;31
2022/11/26 01:13:58;;;;;;;;;;;3.90;99.90;;;;;;2603984;54;19989;31
2022/11/26 01:16:32;;;;;;;;;;;4.00;99.90;;;;;;2603960;54;20389;31
2022/11/26 01:19:10;;;;;;;;;;;4.00;99.90;;;;;;2604081;54;19938;31
2022/11/26 01:21:44;;;;;;;;;;;4.00;99.90;;;;;;2604091;54;19941;31
2022/11/26 01:24:18;;;;;;;;;;;4.00;99.90;;;;;;2604168;54;19990;31
2022/11/26 01:26:52;;;;;;;;;;;4.00;99.90;;;;;;2617570;46;19998;31
2022/11/26 01:29:27;;;;;;;;;;;4.10;99.90;;;;;;2603712;54;20795;31
2022/11/26 01:32:01;;;;;;;;;;;4.10;99.90;;;;;;2603758;54;19935;31
2022/11/26 01:34:38;;;;;;;;;;;4.10;99.90;;;;;;2604102;54;19947;31
2022/11/26 01:37:13;;;;;;;;;;;4.10;99.90;;;;;;2622408;46;20854;31
2022/11/26 01:39:48;;;;;;;;;;;4.20;99.90;;;;;;2603768;54;19980;31
2022/11/26 01:42:24;;;;;;;;;;;4.20;99.90;;;;;;2613823;46;19934;31
2022/11/26 01:44:58;;;;;;;;;;;4.20;99.90;;;;;;2603501;54;19951;31
2022/11/26 01:47:32;;;;;;;;;;;4.20;99.90;;;;;;2603951;54;19951;31
2022/11/26 01:50:21;;;;;;;;;;;4.30;99.90;;;;;;2603974;54;19941;31
2022/11/26 01:52:58;;;;;;;;;;;4.30;99.90;;;;;;2604131;54;19935;31
2022/11/26 01:55:33;;;;;;;;;;;4.30;99.90;;;;;;2622614;46;19938;31
2022/11/26 01:58:07;;;;;;;;;;;4.30;99.90;;;;;;2622187;46;19935;31
2022/11/26 02:00:41;;;;;;;;;;;4.30;99.90;;;;;;2622138;46;19935;31
2022/11/26 02:03:17;;;;;;;;;;;4.30;99.90;;;;;;2603774;54;20710;31
2022/11/26 02:05:52;;;;;;;;;;;4.30;99.90;;;;;;2622013;46;19934;31
2022/11/26 02:08:31;;;;;;;;;;;4.30;99.90;;;;;;2603815;54;20765;31
2022/11/26 02:11:04;;;;;;;;;;;4.30;99.90;;;;;;2622231;46;19935;31
2022/11/26 02:13:39;;;;;;;;;;;4.30;99.90;;;;;;2603684;54;19950;31
2022/11/26 02:16:13;;;;;;;;;;;4.40;99.90;;;;;;2603718;54;19935;31
2022/11/26 02:18:47;;;;;;;;;;;4.40;99.90;;;;;;2603991;54;19941;31
2022/11/26 02:21:22;;;;;;;;;;;4.40;99.90;;;;;;2603683;54;19942;31
2022/11/26 02:24:10;;;;;;;;;;;4.50;99.90;;;;;;2603518;54;19993;31
2022/11/26 02:26:49;;;;;;;;;;;4.50;99.90;;;;;;2608745;46;20002;31
2022/11/26 02:29:24;;;;;;;;;;;4.50;99.90;;;;;;2603690;54;19996;31
2022/11/26 02:32:01;;;;;;;;;;;4.50;99.90;;;;;;2603580;54;19950;31
2022/11/26 02:34:36;;;;;;;;;;;4.50;99.90;;;;;;2603819;54;20758;31
2022/11/26 02:37:09;;;;;;;;;;;4.50;99.90;;;;;;2603607;54;20805;31
2022/11/26 02:39:43;;;;;;;;;;;4.50;99.90;;;;;;2603768;54;19957;31
2022/11/26 02:42:48;;;;;;;;;;;4.50;99.90;;;;;;2622434;46;20753;31
2022/11/26 02:45:22;;;;;;;;;;;4.50;99.90;;;;;;2603832;54;19942;31
2022/11/26 02:47:59;;;;;;;;;;;4.50;99.90;;;;;;2622075;46;20045;31
2022/11/26 02:50:34;;;;;;;;;;;4.50;99.90;;;;;;2603831;54;19934;31
2022/11/26 02:53:27;;;;;;;;;;;4.50;99.90;;;;;;2603740;54;20708;31
2022/11/26 02:56:21;;;;;;;;;;;4.50;99.90;;;;;;2603806;54;20731;31
2022/11/26 02:58:54;;;;;;;;;;;4.50;99.90;;;;;;2603605;54;19943;31
2022/11/26 03:04:39;;;;;;;;;;;4.50;99.90;;;;;;2603527;54;19946;31
2022/11/26 03:07:12;;;;;;;;;;;4.50;99.90;;;;;;2721121;39;21046;31
2022/11/26 03:09:51;;;;;;;;;;;4.50;99.90;;;;;;2621953;46;19934;31
2022/11/26 03:12:25;;;;;;;;;;;4.50;99.90;;;;;;2603533;54;19957;31
2022/11/26 03:14:59;;;;;;;;;;;4.50;99.90;;;;;;2603338;54;19993;31
2022/11/26 03:17:33;;;;;;;;;;;4.50;99.90;;;;;;2603496;54;19960;31
2022/11/26 03:20:11;;;;;;;;;;;4.50;99.90;;;;;;2603462;54;19942;31
2022/11/26 03:22:45;;;;;;;;;;;4.50;99.90;;;;;;2621859;46;19935;31
2022/11/26 03:25:19;;;;;;;;;;;4.60;99.90;;;;;;2622000;46;20843;31
2022/11/26 03:27:54;;;;;;;;;;;4.60;99.90;;;;;;2603223;54;20818;31
2022/11/26 03:30:28;;;;;;;;;;;4.50;99.90;;;;;;2603430;54;19934;31
2022/11/26 03:33:19;;;;;;;;;;;4.50;99.90;;;;;;2621502;46;20854;31
2022/11/26 03:35:55;;;;;;;;;;;4.60;99.90;;;;;;2621872;46;19942;31
2022/11/26 03:38:29;;;;;;;;;;;4.60;99.90;;;;;;2621783;46;20005;31
2022/11/26 03:41:04;;;;;;;;;;;4.60;99.90;;;;;;2603646;54;19981;31
2022/11/26 03:43:38;;;;;;;;;;;4.60;99.90;;;;;;2621761;46;19941;31
2022/11/26 03:46:12;;;;;;;;;;;4.60;99.90;;;;;;2603720;54;20755;31
2022/11/26 03:48:46;;;;;;;;;;;4.60;99.90;;;;;;2603281;54;19941;31
2022/11/26 03:51:22;;;;;;;;;;;4.60;99.90;;;;;;2603373;54;20844;31
2022/11/26 03:53:57;;;;;;;;;;;4.60;99.90;;;;;;2603252;54;20850;31
2022/11/26 03:56:31;;;;;;;;;;;4.60;99.90;;;;;;2603517;54;19934;31
2022/11/26 03:59:06;;;;;;;;;;;4.60;99.90;;;;;;2603403;54;19957;31
2022/11/26 04:01:40;;;;;;;;;;;4.60;99.90;;;;;;2622007;46;19954;31
2022/11/26 04:04:14;;;;;;;;;;;4.60;99.90;;;;;;2603413;54;20754;31
2022/11/26 04:06:51;;;;;;;;;;;4.80;99.90;;;;;;2603404;54;19935;31
2022/11/26 04:09:25;;;;;;;;;;;4.80;99.90;;;;;;2603286;54;20737;31
2022/11/26 04:11:56;;;;;;;;;;;4.80;99.90;;;;;;2701898;39;20946;31
2022/11/26 04:14:30;;;;;;;;;;;4.80;99.90;;;;;;2621917;46;19956;31
2022/11/26 04:17:05;;;;;;;;;;;4.80;99.90;;;;;;2603429;54;19942;31
2022/11/26 04:19:39;;;;;;;;;;;4.80;99.90;;;;;;2604507;47;19934;31
2022/11/26 04:22:16;;;;;;;;;;;4.90;99.90;;;;;;2603444;54;20794;31
2022/11/26 04:24:50;;;;;;;;;;;4.80;99.90;;;;;;2603335;54;19935;31
2022/11/26 04:27:24;;;;;;;;;;;4.80;99.90;;;;;;2621889;47;19941;31
2022/11/26 04:29:58;;;;;;;;;;;4.80;99.90;;;;;;2603979;54;19935;31
2022/11/26 04:32:32;;;;;;;;;;;4.80;99.90;;;;;;2603983;54;20776;31
2022/11/26 04:35:06;;;;;;;;;;;4.80;99.90;;;;;;2604209;54;19934;31
2022/11/26 04:37:43;;;;;;;;;;;4.80;99.90;;;;;;2604158;54;20777;31
2022/11/26 04:40:17;;;;;;;;;;;4.80;99.90;;;;;;2622585;46;19935;31
2022/11/26 04:42:51;;;;;;;;;;;4.80;99.90;;;;;;2622307;46;19941;31
2022/11/26 04:45:26;;;;;;;;;;;4.80;99.90;;;;;;2604221;54;19942;31
2022/11/26 04:48:00;;;;;;;;;;;4.80;99.90;;;;;;2618516;46;19946;31
2022/11/26 04:50:35;;;;;;;;;;;4.90;99.90;;;;;;2604269;54;19946;31
2022/11/26 04:53:11;;;;;;;;;;;4.90;99.90;;;;;;2622597;46;20761;31
2022/11/26 04:55:44;;;;;;;;;;;4.90;99.90;;;;;;2604101;54;19934;31
2022/11/26 04:58:18;;;;;;;;;;;4.90;99.90;;;;;;2604234;54;20755;31
2022/11/26 05:00:52;;;;;;;;;;;4.90;99.90;;;;;;2603938;54;19942;31
2022/11/26 05:03:26;;;;;;;;;;;4.90;99.90;;;;;;2603911;54;19935;31
2022/11/26 05:06:00;;;;;;;;;;;5.00;99.90;;;;;;2603790;54;19941;31
2022/11/26 05:08:36;;;;;;;;;;;5.00;99.90;;;;;;2603754;54;19934;31
2022/11/26 05:11:10;;;;;;;;;;;5.00;99.90;;;;;;2622547;46;19941;31
2022/11/26 05:13:44;;;;;;;;;;;5.00;99.90;;;;;;2604020;54;19934;31
2022/11/26 05:16:18;;;;;;;;;;;5.00;99.90;;;;;;2604115;54;19998;31
2022/11/26 05:18:53;;;;;;;;;;;5.00;99.90;;;;;;2603791;54;20720;31
2022/11/26 05:21:27;;;;;;;;;;;5.00;99.90;;;;;;2604047;54;20755;31
2022/11/26 05:24:05;;;;;;;;;;;5.10;99.90;;;;;;2622210;46;19993;31
2022/11/26 05:26:39;;;;;;;;;;;5.10;99.90;;;;;;2622299;46;19990;31
2022/11/26 05:29:13;;;;;;;;;;;5.10;99.90;;;;;;2622126;46;20758;31
2022/11/26 05:31:48;;;;;;;;;;;5.10;99.90;;;;;;2603773;54;20780;31
2022/11/26 05:34:22;;;;;;;;;;;5.10;99.90;;;;;;2603701;54;20021;31
2022/11/26 05:36:56;;;;;;;;;;;5.10;99.90;;;;;;2622373;46;19935;31
2022/11/26 05:39:32;;;;;;;;;;;5.10;99.90;;;;;;2603753;54;19977;31
2022/11/26 05:42:07;;;;;;;;;;;5.10;99.90;;;;;;2603851;54;19956;31
2022/11/26 05:44:42;;;;;;;;;;;5.10;99.90;;;;;;2603676;54;20742;31
2022/11/26 05:47:16;;;;;;;;;;;5.10;99.90;;;;;;2622344;46;20797;31
2022/11/26 05:49:50;;;;;;;;;;;5.10;99.90;;;;;;2622270;46;19998;31
2022/11/26 05:52:24;;;;;;;;;;;5.20;99.90;;;;;;2603899;54;20803;31
2022/11/26 05:55:01;;;;;;;;;;;5.20;99.90;;;;;;2622391;46;20061;31
2022/11/26 05:57:35;;;;;;;;;;;5.20;99.90;;;;;;2622335;46;19938;31
2022/11/26 06:00:10;;;;;;;;;;;5.20;99.90;;;;;;2603505;54;20014;31
2022/11/26 06:02:44;;;;;;;;;;;5.20;99.90;;;;;;2603609;54;20726;31
2022/11/26 06:05:18;;;;;;;;;;;5.30;99.90;;;;;;2603779;54;19935;31
2022/11/26 06:07:52;;;;;;;;;;;5.30;99.90;;;;;;2614160;46;20006;31
2022/11/26 06:10:28;;;;;;;;;;;5.30;99.90;;;;;;2603628;54;20818;31
2022/11/26 06:13:01;;;;;;;;;;;5.30;99.90;;;;;;2603948;54;19934;31
2022/11/26 06:15:35;;;;;;;;;;;5.30;99.90;;;;;;2622339;46;19934;31
2022/11/26 06:18:09;;;;;;;;;;;5.30;99.90;;;;;;2603653;54;19941;31
2022/11/26 06:20:43;;;;;;;;;;;5.30;99.90;;;;;;2603836;54;20789;31
2022/11/26 06:23:17;;;;;;;;;;;5.40;99.90;;;;;;2622324;46;19935;31
2022/11/26 06:25:54;;;;;;;;;;;5.30;99.90;;;;;;2603835;54;20799;31
2022/11/26 06:28:28;;;;;;;;;;;5.40;99.90;;;;;;2603514;54;20845;31
2022/11/26 06:30:59;;;;;;;;;;;5.40;99.90;;;;;;2702653;39;22212;31
2022/11/26 06:33:33;;;;;;;;;;;5.40;99.90;;;;;;2622304;46;20848;31
2022/11/26 06:36:07;;;;;;;;;;;5.40;99.90;;;;;;2603523;54;20771;31
2022/11/26 06:38:41;;;;;;;;;;;5.40;99.90;;;;;;2603614;54;20789;31
2022/11/26 06:41:17;;;;;;;;;;;5.40;99.90;;;;;;2603804;54;20780;31
2022/11/26 06:43:49;;;;;;;;;;;5.40;99.90;;;;;;2609896;39;20941;31
2022/11/26 06:46:23;;;;;;;;;;;5.40;99.90;;;;;;2622258;46;19934;31
2022/11/26 06:48:57;;;;;;;;;;;5.50;99.90;;;;;;2603728;54;20024;31
2022/11/26 06:51:31;;;;;;;;;;;5.50;99.90;;;;;;2603598;54;20801;31
2022/11/26 06:54:05;;;;;;;;;;;5.50;99.90;;;;;;2603163;54;19965;31
2022/11/26 06:56:42;;;;;;;;;;;5.50;99.90;;;;;;2622024;46;19935;31
2022/11/26 06:59:19;;;;;;;;;;;5.50;99.90;;;;;;2603522;54;19998;31
2022/11/26 07:01:52;;;;;;;;;;;5.50;99.90;;;;;;2701554;39;22270;31
2022/11/26 07:04:27;;;;;;;;;;;5.50;99.90;;;;;;2622133;46;19942;31
2022/11/26 07:07:01;;;;;;;;;;;5.50;99.90;;;;;;2622130;46;19935;31
2022/11/26 07:09:35;;;;;;;;;;;5.50;99.90;;;;;;2603400;54;20723;31
2022/11/26 07:12:12;;;;;;;;;;;5.50;99.90;;;;;;2603603;54;20699;31
2022/11/26 07:14:47;;;;;;;;;;;5.50;99.90;;;;;;2621812;46;19941;31
2022/11/26 07:17:21;;;;;;;;;;;5.60;99.90;;;;;;2622143;46;20767;31
2022/11/26 07:19:55;;;;;;;;;;;5.60;99.90;;;;;;2622140;46;20740;31
2022/11/26 07:22:29;;;;;;;;;;;5.60;99.90;;;;;;2603638;54;20025;31
2022/11/26 07:25:04;;;;;;;;;;;5.60;99.90;;;;;;2621987;46;20757;31
2022/11/26 07:27:49;;;;;;;;;;;5.60;99.90;;;;;;2621640;46;20004;31
2022/11/26 07:30:23;;;;;;;;;;;5.70;99.90;;;;;;2603420;54;19941;31
2022/11/26 07:32:57;;;;;;;;;;;5.70;99.90;;;;;;2603398;54;19942;31
2022/11/26 07:35:31;;;;;;;;;;;5.70;99.90;;;;;;2603267;54;20018;31
2022/11/26 07:38:06;;;;;;;;;;;5.70;99.90;;;;;;2603408;54;20823;31
2022/11/26 07:40:41;;;;;;;;;;;5.70;99.90;;;;;;2608983;46;19946;31
2022/11/26 07:43:17;;;;;;;;;;;5.70;99.90;;;;;;2622168;46;19935;31
2022/11/26 07:45:51;;;;;;;;;;;5.80;99.90;;;;;;2603452;54;20714;31
2022/11/26 07:48:25;;;;;;;;;;;5.70;99.90;;;;;;2603281;54;19935;31
2022/11/26 07:51:03;;;;;;;;;;;5.80;99.90;;;;;;2603264;54;20713;31
2022/11/26 07:53:38;;;;;;;;;;;5.80;99.90;;;;;;2622065;46;19935;31
2022/11/26 07:56:12;;;;;;;;;;;5.90;99.90;;;;;;2603580;54;19941;31
2022/11/26 07:58:49;;;;;;;;;;;5.90;99.90;;;;;;2603227;54;19946;31
2022/11/26 08:01:25;;;;;;;;;;;5.90;99.90;;;;;;2603639;54;19935;31
2022/11/26 08:04:03;;;;;;;;;;;6.00;99.90;;;;;;2621596;46;19961;31
2022/11/26 08:06:38;;;;;;;;;;;6.10;99.90;;;;;;2622174;46;19954;31
2022/11/26 08:09:14;;;;;;;;;;;6.10;99.90;;;;;;2603428;54;20761;31
2022/11/26 08:11:47;;;;;;;;;;;6.10;99.90;;;;;;2603357;54;20771;31
2022/11/26 08:14:26;;;;;;;;;;;6.20;99.90;;;;;;2621856;46;19956;31
2022/11/26 08:17:01;;;;;;;;;;;6.20;99.90;;;;;;2603260;54;19935;31
2022/11/26 08:19:36;;;;;;;;;;;6.30;99.90;;;;;;2621734;47;19942;31
2022/11/26 08:22:11;;;;;;;;;;;6.30;99.90;;;;;;2621572;47;19946;31
2022/11/26 08:24:46;;;;;;;;;;;6.40;99.90;;;;;;2603300;54;19935;31
2022/11/26 08:27:22;;;;;;;;;;;6.40;99.90;;;;;;2603373;54;19946;31
2022/11/26 08:29:58;;;;;;;;;;;6.50;99.90;;;;;;2603469;54;20009;31
2022/11/26 08:32:32;;;;;;;;;;;6.50;99.90;;;;;;2603364;54;19950;31
2022/11/26 08:35:06;;;;;;;;;;;6.50;99.90;;;;;;2621844;47;19938;31
2022/11/26 08:37:40;;;;;;;;;;;6.60;99.90;;;;;;2621856;47;19989;31
2022/11/26 08:40:16;;;;;;;;;;;6.60;99.90;;;;;;2621792;47;19962;31
2022/11/26 08:42:50;;;;;;;;;;;6.70;99.90;;;;;;2621535;47;20671;31
2022/11/26 08:45:28;;;;;;;;;;;6.70;99.90;;;;;;2620137;47;19942;31
2022/11/26 08:48:02;;;;;;;;;;;6.70;99.90;;;;;;2621396;47;20775;31
2022/11/26 08:50:40;;;;;;;;;;;6.80;99.90;;;;;;2603375;54;19934;31
2022/11/26 08:53:14;;;;;;;;;;;6.80;99.90;;;;;;2621830;47;20722;31
2022/11/26 08:55:48;;;;;;;;;;;6.80;99.90;;;;;;2621617;47;19954;31
2022/11/26 08:58:34;;;;;;;;;;;6.90;99.90;;;;;;2603045;54;20763;31
2022/11/26 09:01:14;;;;;;;;;;;6.90;99.90;;;;;;2621893;47;19992;31
2022/11/26 09:03:49;;;;;;;;;;;6.90;99.90;;;;;;2603063;54;20675;31
2022/11/26 09:06:23;;;;;;;;;;;7.20;99.90;;;;;;2603233;54;19997;31
2022/11/26 09:11:43;;;;;;;;;;;7.30;99.90;;;;;;2603254;54;19934;31
2022/11/26 09:14:18;;;;;;;;;;;7.40;99.90;;;;;;2621928;47;20789;31
2022/11/26 09:16:55;;;;;;;;;;;7.40;99.90;;;;;;2604182;54;19980;31
2022/11/26 09:19:30;;;;;;;;;;;7.40;99.90;;;;;;2622228;46;19935;31
2022/11/26 09:22:04;;;;;;;;;;;7.40;99.90;;;;;;2604056;54;19935;31
2022/11/26 09:24:39;;;;;;;;;;;7.40;99.90;;;;;;2622195;46;19957;31
2022/11/26 09:27:14;;;;;;;;;;;7.40;99.90;;;;;;2603921;54;19937;31
2022/11/26 09:29:48;;;;;;;;;;;7.40;99.90;;;;;;2604018;54;20741;31
2022/11/26 09:32:25;;;;;;;;;;;7.40;99.90;;;;;;2603726;54;20788;31
2022/11/26 09:35:07;;;;;;;;;;;7.40;99.90;;;;;;2622292;46;19935;31
2022/11/26 09:37:42;;;;;;;;;;;7.40;99.90;;;;;;2604791;46;20753;31
2022/11/26 09:40:23;;;;;;;;;;;7.40;99.90;;;;;;2622409;46;19941;31
2022/11/26 09:43:00;;;;;;;;;;;7.40;99.90;;;;;;2603951;54;19935;31
2022/11/26 09:46:00;;;;;;;;;;;7.40;99.90;;;;;;2622452;46;20038;31
2022/11/26 09:48:37;;;;;;;;;;;7.40;99.90;;;;;;2615952;46;19946;31
2022/11/26 09:51:13;;;;;;;;;;;7.50;99.90;;;;;;2621884;46;19935;31
2022/11/26 09:53:48;;;;;;;;;;;7.40;99.90;;;;;;2603672;54;20827;31
2022/11/26 09:56:23;;;;;;;;;;;7.40;99.90;;;;;;2603790;54;19934;31
2022/11/26 09:58:56;;;;;;;;;;;7.40;99.90;;;;;;2608466;39;22434;31
2022/11/26 10:01:30;;;;;;;;;;;7.30;99.90;;;;;;2603615;54;19935;31
2022/11/26 10:04:07;;;;;;;;;;;7.40;99.90;;;;;;2604054;54;20009;31
2022/11/26 10:06:42;;;;;;;;;;;7.30;99.90;;;;;;2603590;54;19935;31
2022/11/26 10:09:39;;;;;;;;;;;7.30;99.90;;;;;;2603774;54;19942;31
2022/11/26 10:12:12;;;;;;;;;;;7.30;99.90;;;;;;2603396;54;20826;31
2022/11/26 10:14:59;;;;;;;;;;;7.30;99.90;;;;;;2622451;46;19957;31
2022/11/26 10:17:38;;;;;;;;;;;7.30;99.90;;;;;;2622158;46;19935;31
2022/11/26 10:20:30;;;;;;;;;;;7.50;99.90;;;;;;2603564;54;19938;31
2022/11/26 10:23:07;;;;;;;;;;;7.30;99.90;;;;;;2603531;54;19961;31
2022/11/26 10:25:41;;;;;;;;;;;7.30;99.90;;;;;;2613151;46;19946;31
2022/11/26 10:28:17;;;;;;;;;;;7.20;99.90;;;;;;2603929;54;19935;31
2022/11/26 10:30:53;;;;;;;;;;;7.20;99.90;;;;;;2603847;54;19946;31
2022/11/26 10:33:28;;;;;;;;;;;7.10;99.90;;;;;;2621946;46;19942;31
2022/11/26 10:36:02;;;;;;;;;;;7.40;99.90;;;;;;2603648;54;19943;31
2022/11/26 10:38:39;;;;;;;;;;;7.10;99.90;;;;;;2622039;46;19993;31
2022/11/26 10:41:17;;;;;;;;;;;7.10;99.90;;;;;;2603371;54;19994;31
2022/11/26 10:43:51;;;;;;;;;;;7.10;99.90;;;;;;2603711;54;19967;31
2022/11/26 10:46:32;;;;;;;;;;;7.10;99.90;;;;;;2603685;54;20492;31
2022/11/26 10:49:21;;;;;;;;;;;7.10;99.90;;;;;;2603436;54;20795;31
2022/11/26 10:51:55;;;;;;;;;;;7.00;99.90;;;;;;2621878;46;20491;31
2022/11/26 10:54:32;;;;;;;;;;;7.00;99.90;;;;;;2622266;46;19960;31
2022/11/26 10:57:12;;;;;;;;;;;6.90;99.90;;;;;;2622349;46;20747;31
2022/11/26 10:59:51;;;;;;;;;;;6.90;99.90;;;;;;2603737;54;19935;31
2022/11/26 11:02:30;;;;;;;;;;;6.80;99.90;;;;;;2621956;46;19997;31
2022/11/26 11:05:04;;;;;;;;;;;6.80;99.90;;;;;;2608616;46;19935;31
2022/11/26 11:07:44;;;;;;;;;;;6.80;99.90;;;;;;2603788;54;19943;31
2022/11/26 11:10:20;;;;;;;;;;;6.80;99.90;;;;;;2603886;54;19935;31
2022/11/26 11:13:05;;;;;;;;;;;6.80;99.90;;;;;;2622078;46;20801;31
2022/11/26 11:15:40;;;;;;;;;;;6.80;99.90;;;;;;2603611;54;19941;31
2022/11/26 11:18:20;;;;;;;;;;;6.80;99.90;;;;;;2603800;54;19938;31
2022/11/26 11:20:56;;;;;;;;;;;6.70;99.90;;;;;;2603511;54;20725;31
2022/11/26 11:23:30;;;;;;;;;;;6.70;99.90;;;;;;2621601;46;20025;31
2022/11/26 11:26:27;;;;;;;;;;;6.60;99.90;;;;;;2603566;54;19982;31
2022/11/26 11:29:04;;;;;;;;;;;6.50;99.90;;;;;;2603253;54;20790;31
2022/11/26 11:31:46;;;;;;;;;;;6.50;99.90;;;;;;2603515;54;19994;31
2022/11/26 11:34:22;;;;;;;;;;;6.50;99.90;;;;;;2603367;54;20708;31
2022/11/26 11:36:59;;;;;;;;;;;6.50;99.90;;;;;;2603239;54;19941;31
2022/11/26 11:39:34;;;;;;;;;;;6.50;99.90;;;;;;2622087;46;19934;31
2022/11/26 11:42:17;;;;;;;;;;;6.50;99.90;;;;;;2603362;54;20743;31
2022/11/26 11:44:50;;;;;;;;;;;6.50;99.90;;;;;;2603503;54;20474;31
2022/11/26 11:47:29;;;;;;;;;;;6.40;99.90;;;;;;2603410;54;20548;31
2022/11/26 11:50:14;;;;;;;;;;;6.40;99.90;;;;;;2621995;46;19935;31
2022/11/26 11:52:53;;;;;;;;;;;6.40;99.90;;;;;;2613624;46;19935;31
2022/11/26 11:55:29;;;;;;;;;;;6.40;99.90;;;;;;2701910;39;20374;31
2022/11/26 11:58:17;;;;;;;;;;;6.50;99.90;;;;;;2604406;46;19938;31
2022/11/26 12:00:54;;;;;;;;;;;6.40;99.90;;;;;;2621990;46;20752;31
2022/11/26 12:03:35;;;;;;;;;;;6.50;99.90;;;;;;2604417;46;19961;31
2022/11/26 12:06:13;;;;;;;;;;;6.50;99.90;;;;;;2604400;46;19946;31
2022/11/26 12:08:50;;;;;;;;;;;6.50;99.90;;;;;;2602733;54;19934;31
2022/11/26 12:11:28;;;;;;;;;;;6.50;99.90;;;;;;2602461;54;19938;31
2022/11/26 12:14:03;;;;;;;;;;;6.50;99.90;;;;;;2621714;46;20813;31
2022/11/26 12:16:38;;;;;;;;;;;6.50;99.90;;;;;;2621543;46;19947;31
2022/11/26 12:19:16;;;;;;;;;;;6.50;99.90;;;;;;2603528;54;19935;31
2022/11/26 12:21:51;;;;;;;;;;;6.60;99.90;;;;;;2603383;54;19935;31
2022/11/26 12:24:26;;;;;;;;;;;6.60;99.90;;;;;;2621765;47;20702;31
2022/11/26 12:27:01;;;;;;;;;;;6.60;99.90;;;;;;2603183;54;19957;31
2022/11/26 12:29:36;;;;;;;;;;;6.60;99.90;;;;;;2603124;54;19935;31
2022/11/26 12:32:14;;;;;;;;;;;6.60;99.90;;;;;;2602543;54;19934;31
2022/11/26 12:34:51;;;;;;;;;;;6.70;99.90;;;;;;2621395;47;20826;31
2022/11/26 12:37:26;;;;;;;;;;;6.70;99.90;;;;;;2621655;47;19938;31
2022/11/26 12:40:02;;;;;;;;;;;6.80;99.90;;;;;;2621546;47;19935;31
2022/11/26 12:42:40;;;;;;;;;;;6.80;99.90;;;;;;2602251;54;19998;31
2022/11/26 12:45:17;;;;;;;;;;;6.80;99.90;;;;;;2602772;54;19969;31
2022/11/26 12:47:52;;;;;;;;;;;6.80;99.90;;;;;;2603301;54;19941;31
2022/11/26 12:50:31;;;;;;;;;;;6.80;99.90;;;;;;2603678;54;20787;31
2022/11/26 12:53:10;;;;;;;;;;;6.80;99.90;;;;;;2622542;46;19935;31
2022/11/26 12:55:45;;;;;;;;;;;6.80;99.90;;;;;;2603906;46;20772;31
2022/11/26 12:58:20;;;;;;;;;;;6.80;99.90;;;;;;2603884;54;19956;31
2022/11/26 13:00:55;;;;;;;;;;;6.80;99.90;;;;;;2622363;46;19938;31
2022/11/26 13:03:32;;;;;;;;;;;6.80;99.90;;;;;;2721171;39;21454;31
2022/11/26 13:06:10;;;;;;;;;;;6.80;99.90;;;;;;2622502;46;20006;31
2022/11/26 13:08:47;;;;;;;;;;;6.80;99.90;;;;;;2603840;54;19990;31
2022/11/26 13:11:27;;;;;;;;;;;6.80;99.90;;;;;;2603963;54;20706;31
2022/11/26 13:14:03;;;;;;;;;;;6.80;99.90;;;;;;2622654;46;20748;31
2022/11/26 13:16:38;;;;;;;;;;;6.80;99.90;;;;;;2603920;54;20856;31
2022/11/26 13:19:15;;;;;;;;;;;6.70;99.90;;;;;;2622576;46;20882;31
2022/11/26 13:22:00;;;;;;;;;;;6.70;99.90;;;;;;2622527;46;19954;31
2022/11/26 13:24:38;;;;;;;;;;;6.70;99.90;;;;;;2622529;46;20818;31
2022/11/26 13:27:16;;;;;;;;;;;6.70;99.90;;;;;;2603809;54;22209;31
2022/11/26 13:29:53;;;;;;;;;;;6.70;99.90;;;;;;2603591;54;19987;31
2022/11/26 13:32:37;;;;;;;;;;;6.70;99.90;;;;;;2603728;54;19989;31
2022/11/26 13:35:17;;;;;;;;;;;6.70;99.90;;;;;;2622582;46;20820;31
2022/11/26 13:38:09;;;;;;;;;;;6.70;99.90;;;;;;2622213;46;20001;31
2022/11/26 13:40:51;;;;;;;;;;;6.70;99.90;;;;;;2604006;54;20700;31
2022/11/26 13:43:48;;;;;;;;;;;6.70;99.90;;;;;;2604052;54;20719;31
2022/11/26 13:46:23;;;;;;;;;;;6.70;99.90;;;;;;2604136;54;19941;31
2022/11/26 13:48:59;;;;;;;;;;;6.80;99.90;;;;;;2622408;46;20005;31
2022/11/26 13:51:34;;;;;;;;;;;6.80;99.90;;;;;;2603828;54;20684;31
2022/11/26 13:54:09;;;;;;;;;;;6.80;99.90;;;;;;2603988;54;19941;31
2022/11/26 13:56:46;;;;;;;;;;;6.80;99.90;;;;;;2603854;54;19934;31
2022/11/26 13:59:20;;;;;;;;;;;6.80;99.90;;;;;;2603876;54;20804;31
2022/11/26 14:02:02;;;;;;;;;;;6.80;99.90;;;;;;2603895;54;19958;31
2022/11/26 14:04:51;;;;;;;;;;;6.80;99.90;;;;;;2622269;46;19935;31
2022/11/26 14:07:26;;;;;;;;;;;6.80;99.90;;;;;;2604694;46;19934;31
2022/11/26 14:10:00;;;;;;;;;;;6.80;99.90;;;;;;2603908;54;19972;31
2022/11/26 14:12:57;;;;;;;;;;;6.80;99.90;;;;;;2603953;54;19964;31
2022/11/26 14:15:55;;;;;;;;;;;6.80;99.90;;;;;;2603254;54;20791;31
2022/11/26 14:18:44;;;;;;;;;;;6.80;99.90;;;;;;2603347;54;19935;31
2022/11/26 14:21:18;;;;;;;;;;;6.80;99.90;;;;;;2603548;54;20008;31
2022/11/26 14:23:53;;;;;;;;;;;6.90;99.90;;;;;;2603886;54;19960;31
2022/11/26 14:26:29;;;;;;;;;;;6.90;99.90;;;;;;2622518;46;19960;31
2022/11/26 14:29:13;;;;;;;;;;;6.90;99.90;;;;;;2603521;54;20749;31
2022/11/26 14:31:53;;;;;;;;;;;6.80;99.90;;;;;;2603648;54;19989;31
2022/11/26 14:34:29;;;;;;;;;;;6.80;99.90;;;;;;2603567;54;20867;31
2022/11/26 14:37:04;;;;;;;;;;;6.80;99.90;;;;;;2603747;54;19935;31
2022/11/26 14:39:38;;;;;;;;;;;6.80;99.90;;;;;;2603895;54;19990;31
2022/11/26 14:42:15;;;;;;;;;;;6.80;99.90;;;;;;2622318;46;20737;31
2022/11/26 14:44:51;;;;;;;;;;;6.80;99.90;;;;;;2622140;46;19935;31
2022/11/26 14:47:28;;;;;;;;;;;6.80;99.90;;;;;;2622050;46;19935;31
2022/11/26 14:50:02;;;;;;;;;;;6.80;99.90;;;;;;2603687;54;20730;31
2022/11/26 14:52:35;;;;;;;;;;;6.80;99.90;;;;;;2604396;46;19957;31
2022/11/26 14:55:10;;;;;;;;;;;6.80;99.90;;;;;;2603787;54;20749;31
2022/11/26 14:57:44;;;;;;;;;;;6.80;99.90;;;;;;2603679;54;19935;31
2022/11/26 15:00:24;;;;;;;;;;;6.80;99.90;;;;;;2603185;54;19942;31
2022/11/26 15:03:02;;;;;;;;;;;6.80;99.90;;;;;;2603829;54;19939;31
2022/11/26 15:05:37;;;;;;;;;;;6.70;99.90;;;;;;2622267;46;19935;31
2022/11/26 15:08:18;;;;;;;;;;;6.70;99.90;;;;;;2608846;46;19962;31
2022/11/26 15:10:52;;;;;;;;;;;6.70;99.90;;;;;;2603572;54;19934;31
2022/11/26 15:13:27;;;;;;;;;;;6.70;99.90;;;;;;2603277;54;20783;31
2022/11/26 15:16:01;;;;;;;;;;;6.70;99.90;;;;;;2603371;54;19957;31
2022/11/26 15:18:38;;;;;;;;;;;6.70;99.90;;;;;;2608709;46;19941;31
2022/11/26 15:21:14;;;;;;;;;;;6.70;99.90;;;;;;2622125;46;19935;31
2022/11/26 15:23:48;;;;;;;;;;;6.70;99.90;;;;;;2621990;46;19989;31
2022/11/26 15:26:23;;;;;;;;;;;6.70;99.90;;;;;;2603683;54;20747;31
2022/11/26 15:28:55;;;;;;;;;;;6.70;99.90;;;;;;2603476;54;20724;31
2022/11/26 15:31:40;;;;;;;;;;;6.60;99.90;;;;;;2603617;54;20799;31
2022/11/26 15:34:17;;;;;;;;;;;6.70;99.90;;;;;;2603586;54;19934;31
2022/11/26 15:36:51;;;;;;;;;;;6.70;99.90;;;;;;2603759;54;19956;31
2022/11/26 15:39:26;;;;;;;;;;;6.70;99.90;;;;;;2622045;46;19960;31
2022/11/26 15:42:00;;;;;;;;;;;6.70;99.90;;;;;;2621872;46;19982;31
2022/11/26 15:44:34;;;;;;;;;;;6.70;99.90;;;;;;2603515;54;20533;31